Zug, Switzerland
Current Conditions -  °F | °C
As of 6:50 PM on Thursday 27 Nov 2014 (Local Time) from LSME Reporting Station
Overcast Overcast  
Wind Chill: 46°   Ceiling: 600
Heat Index: 46°   Visibility: 5mi
Dew Point: 45°   Wind: 2mph
Humidity: 93%   Direction: NA
Pressure: 29.77"   Gusts: NA
Location:  47.18°N, 8.52°E
Report Text: LSME 271750Z AUTO VRB02KT 8000NDV OVC006 08/07 Q1008 RMK YLO
Loading
Personal Weather Stations






























Interactive Weather Map New forecast layout! Learn more

10-Day Weather Forecast

Advertisements
Track Severe Weather on mobile